Time;durP1;ratioP1;P1;durP2;ratioP2;P2;SDS_P1;SDS_P2;PMS_P1;PMS_P2;Temp;Humidity;BMP_temperature;BMP_pressure;BME280_temperature;BME280_humidity;BME280_pressure;Samples;Min_cycle;Max_cycle;Signal;HPM_P1;HPM_P2
2023/10/30 00:01:48;;;;;;;6.43;0.80;;;10.50;91.50;;;;;;5085657;28;20437;-73
2023/10/30 00:04:14;;;;;;;7.00;0.87;;;10.50;91.40;;;;;;5087017;28;20877;-73
2023/10/30 00:06:40;;;;;;;5.88;0.85;;;10.50;91.40;;;;;;5087651;28;20447;-73
2023/10/30 00:09:06;;;;;;;6.00;1.00;;;10.50;91.10;;;;;;5086932;28;20405;-73
2023/10/30 00:11:31;;;;;;;5.65;1.10;;;10.40;91.10;;;;;;5087560;28;20873;-73
2023/10/30 00:13:57;;;;;;;6.07;0.70;;;10.40;91.00;;;;;;5089238;28;20405;-73
2023/10/30 00:16:22;;;;;;;5.80;0.70;;;10.40;90.80;;;;;;5090821;28;20393;-73
2023/10/30 00:18:48;;;;;;;7.30;0.60;;;10.40;90.90;;;;;;5089229;28;20912;-73
2023/10/30 00:21:14;;;;;;;4.53;0.70;;;10.40;90.90;;;;;;5089559;28;20482;-73
2023/10/30 00:23:40;;;;;;;7.20;1.05;;;10.30;90.80;;;;;;5081496;28;20767;-73
2023/10/30 00:26:06;;;;;;;6.55;0.80;;;10.30;90.90;;;;;;5086199;28;20409;-73
2023/10/30 00:28:34;;;;;;;6.53;0.73;;;10.30;90.90;;;;;;5088647;28;20904;-73
2023/10/30 00:31:01;;;;;;;6.97;0.90;;;10.30;90.90;;;;;;5090995;28;20401;-73
2023/10/30 00:33:26;;;;;;;4.40;0.70;;;10.20;91.00;;;;;;5089592;28;20398;-73
2023/10/30 00:35:52;;;;;;;9.10;1.13;;;10.20;90.90;;;;;;5090910;28;20408;-73
2023/10/30 00:38:18;;;;;;;6.63;0.73;;;10.20;91.20;;;;;;5090417;28;20398;-73
2023/10/30 00:40:43;;;;;;;5.03;0.73;;;10.20;90.90;;;;;;5089607;28;20406;-73
2023/10/30 00:43:10;;;;;;;5.07;0.73;;;10.20;90.80;;;;;;5090354;28;20402;-73
2023/10/30 00:45:35;;;;;;;5.15;0.68;;;10.20;90.60;;;;;;5090722;28;20899;-72
2023/10/30 00:48:01;;;;;;;4.70;0.87;;;10.10;90.70;;;;;;5089126;28;20405;-73
2023/10/30 00:50:27;;;;;;;4.35;0.50;;;10.20;90.70;;;;;;5090619;28;20394;-73
2023/10/30 00:52:52;;;;;;;6.37;0.80;;;10.10;90.50;;;;;;5089879;28;20869;-73
2023/10/30 00:55:18;;;;;;;5.57;0.60;;;10.10;90.60;;;;;;5088947;28;20413;-73
2023/10/30 00:57:44;;;;;;;5.72;1.00;;;10.10;90.50;;;;;;5089012;28;20445;-73
2023/10/30 01:00:10;;;;;;;4.57;0.80;;;10.10;90.30;;;;;;5090371;28;20443;-73
2023/10/30 01:02:36;;;;;;;6.35;0.77;;;10.10;90.20;;;;;;5071666;28;20459;-73
2023/10/30 01:05:01;;;;;;;6.03;0.60;;;10.00;90.30;;;;;;5089847;28;20390;-73
2023/10/30 01:07:27;;;;;;;6.57;0.80;;;10.00;90.20;;;;;;5089662;28;20822;-73
2023/10/30 01:09:53;;;;;;;4.73;0.80;;;10.00;90.30;;;;;;5089954;28;20410;-73
2023/10/30 01:12:19;;;;;;;3.45;0.70;;;10.00;90.30;;;;;;5088775;28;20409;-73
2023/10/30 01:14:45;;;;;;;4.30;0.70;;;10.00;90.30;;;;;;5090060;28;20467;-73
2023/10/30 01:17:11;;;;;;;4.30;0.90;;;10.00;90.30;;;;;;5089543;28;20933;-73
2023/10/30 01:19:36;;;;;;;5.53;0.90;;;10.00;90.20;;;;;;5088627;28;21000;-73
2023/10/30 01:22:02;;;;;;;4.20;0.50;;;9.90;90.20;;;;;;5089232;28;20905;-72
2023/10/30 01:24:27;;;;;;;5.53;0.80;;;9.90;90.10;;;;;;5089799;28;20406;-73
2023/10/30 01:26:53;;;;;;;3.77;0.67;;;9.90;90.20;;;;;;5089232;28;20492;-73
2023/10/30 01:29:19;;;;;;;4.30;0.50;;;9.90;90.20;;;;;;5088426;28;20764;-73
2023/10/30 01:31:45;;;;;;;3.60;0.60;;;9.90;90.40;;;;;;5089512;28;20426;-73
2023/10/30 01:34:10;;;;;;;4.38;0.60;;;9.80;90.30;;;;;;5089632;28;20819;-73
2023/10/30 01:36:36;;;;;;;5.25;0.80;;;9.80;90.20;;;;;;5089043;28;20499;-73
2023/10/30 01:39:02;;;;;;;5.33;0.87;;;9.80;90.30;;;;;;5088450;28;20402;-73
2023/10/30 01:41:28;;;;;;;4.53;0.68;;;9.80;90.30;;;;;;5089399;28;20792;-73
2023/10/30 01:43:54;;;;;;;4.35;0.80;;;9.80;90.30;;;;;;5088619;28;20394;-73
2023/10/30 01:46:20;;;;;;;8.55;0.80;;;9.70;90.20;;;;;;5089239;28;20410;-73
2023/10/30 01:48:47;;;;;;;3.67;0.82;;;9.70;90.30;;;;;;5089052;28;20440;-73
2023/10/30 01:51:13;;;;;;;3.03;0.60;;;9.70;90.40;;;;;;5088716;28;20477;-73
2023/10/30 01:53:39;;;;;;;6.40;0.90;;;9.70;90.50;;;;;;5089236;28;20827;-73
2023/10/30 01:56:06;;;;;;;5.80;1.00;;;9.70;90.50;;;;;;5088397;28;20429;-73
2023/10/30 01:58:32;;;;;;;3.90;0.70;;;9.70;90.60;;;;;;5087955;28;20437;-73
2023/10/30 02:00:58;;;;;;;4.77;0.60;;;9.70;90.60;;;;;;5088138;28;20422;-73
2023/10/30 02:03:24;;;;;;;4.57;0.70;;;9.60;90.50;;;;;;5088886;28;20402;-73
2023/10/30 02:05:51;;;;;;;4.00;0.67;;;9.60;90.50;;;;;;5088466;28;20409;-73
2023/10/30 02:08:17;;;;;;;4.78;0.60;;;9.60;90.60;;;;;;5087797;28;20410;-73
2023/10/30 02:10:43;;;;;;;4.53;0.80;;;9.60;90.50;;;;;;5088217;28;20456;-73
2023/10/30 02:13:09;;;;;;;4.28;0.70;;;9.60;90.50;;;;;;5088510;28;20387;-73
2023/10/30 02:15:35;;;;;;;4.35;0.98;;;9.60;90.50;;;;;;5088687;28;20394;-72
2023/10/30 02:18:01;;;;;;;4.53;0.70;;;9.60;90.40;;;;;;5087390;28;20964;-73
2023/10/30 02:20:27;;;;;;;7.80;1.10;;;9.60;90.40;;;;;;5088437;28;20398;-72
2023/10/30 02:22:53;;;;;;;5.05;1.20;;;9.60;90.40;;;;;;5087198;28;20444;-73
2023/10/30 02:25:25;;;;;;;4.63;0.80;;;9.60;90.10;;;;;;5087222;28;20402;-73
2023/10/30 02:27:52;;;;;;;5.88;1.00;;;9.60;90.40;;;;;;5088952;28;20421;-72
2023/10/30 02:30:18;;;;;;;5.80;0.95;;;9.60;90.50;;;;;;5085592;28;20481;-73
2023/10/30 02:32:45;;;;;;;4.93;1.08;;;9.60;90.50;;;;;;5087716;28;20403;-73
2023/10/30 02:35:16;;;;;;;5.68;1.17;;;9.70;90.50;;;;;;5087880;28;20390;-73
2023/10/30 02:37:42;;;;;;;3.92;0.90;;;9.60;90.50;;;;;;5088804;28;20424;-73
2023/10/30 02:40:09;;;;;;;5.23;1.37;;;9.60;90.60;;;;;;5088665;28;20398;-73
2023/10/30 02:42:35;;;;;;;4.10;1.10;;;9.60;90.60;;;;;;5086838;28;20445;-73
2023/10/30 02:45:03;;;;;;;5.03;1.20;;;9.60;90.50;;;;;;5088106;28;20523;-73
2023/10/30 02:47:29;;;;;;;6.85;1.40;;;9.50;90.40;;;;;;5081114;28;20410;-73
2023/10/30 02:49:55;;;;;;;4.77;1.23;;;9.50;90.60;;;;;;5086933;28;20968;-72
2023/10/30 02:52:21;;;;;;;4.95;1.30;;;9.50;90.60;;;;;;5088242;28;20445;-72
2023/10/30 02:54:46;;;;;;;5.27;0.87;;;9.50;90.80;;;;;;5088054;28;20401;-73
2023/10/30 02:57:13;;;;;;;5.63;0.97;;;9.50;90.80;;;;;;5085722;28;20445;-73
2023/10/30 02:59:39;;;;;;;7.20;1.23;;;9.50;90.90;;;;;;5087830;28;20477;-73
2023/10/30 03:02:05;;;;;;;6.93;1.10;;;9.50;91.10;;;;;;5088014;28;20430;-73
2023/10/30 03:04:30;;;;;;;6.10;1.47;;;9.50;91.20;;;;;;5087809;28;20409;-73
2023/10/30 03:06:59;;;;;;;5.88;1.30;;;9.50;91.00;;;;;;5087074;28;20862;-73
2023/10/30 03:09:30;;;;;;;9.55;1.40;;;9.50;91.10;;;;;;5088112;28;20866;-72
2023/10/30 03:11:55;;;;;;;7.05;1.10;;;9.50;91.30;;;;;;5087310;28;20456;-73
2023/10/30 03:14:21;;;;;;;6.93;1.20;;;9.50;91.30;;;;;;5087906;28;20426;-73
2023/10/30 03:16:47;;;;;;;7.00;1.48;;;9.50;91.50;;;;;;5087909;28;20466;-72
2023/10/30 03:19:13;;;;;;;7.03;1.10;;;9.50;91.50;;;;;;5087178;28;20402;-73
2023/10/30 03:21:38;;;;;;;6.97;1.50;;;9.40;91.30;;;;;;5087633;28;20504;-73
2023/10/30 03:24:04;;;;;;;5.20;1.20;;;9.40;91.30;;;;;;5087790;28;20847;-73
2023/10/30 03:26:30;;;;;;;5.85;1.33;;;9.40;91.40;;;;;;5087927;28;20486;-73
2023/10/30 03:28:56;;;;;;;6.78;1.52;;;9.40;91.60;;;;;;5086017;28;20455;-73
2023/10/30 03:31:22;;;;;;;8.90;1.33;;;9.40;91.60;;;;;;5087367;28;20390;-73
2023/10/30 03:33:47;;;;;;;8.45;1.40;;;9.40;91.70;;;;;;5087753;28;20903;-73
2023/10/30 03:36:20;;;;;;;6.97;1.33;;;9.40;91.90;;;;;;5087587;28;20386;-73
2023/10/30 03:38:46;;;;;;;7.93;1.35;;;9.40;92.00;;;;;;5087937;28;20729;-73
2023/10/30 03:41:12;;;;;;;7.50;1.58;;;9.40;92.30;;;;;;5087248;28;20425;-72
2023/10/30 03:43:37;;;;;;;5.17;1.03;;;9.50;92.30;;;;;;5075545;28;20411;-73
2023/10/30 03:46:04;;;;;;;8.13;1.40;;;9.50;92.60;;;;;;5087567;28;20405;-73
2023/10/30 03:48:30;;;;;;;7.68;1.60;;;9.50;92.50;;;;;;5090162;28;20531;-73
2023/10/30 03:50:56;;;;;;;8.73;1.63;;;9.50;92.40;;;;;;5091396;28;20414;-73
2023/10/30 03:53:22;;;;;;;8.95;1.23;;;9.60;92.30;;;;;;5091985;28;20503;-73
2023/10/30 03:55:47;;;;;;;9.15;1.40;;;9.60;92.60;;;;;;5091406;28;20842;-73
2023/10/30 03:58:14;;;;;;;5.27;1.20;;;9.50;92.10;;;;;;5090711;28;20444;-73
2023/10/30 04:00:40;;;;;;;8.18;1.33;;;9.50;92.20;;;;;;5089987;28;20409;-73
2023/10/30 04:03:05;;;;;;;5.67;1.00;;;9.50;92.20;;;;;;5078975;28;20447;-73
2023/10/30 04:05:31;;;;;;;7.32;1.42;;;9.50;92.10;;;;;;5084173;28;20501;-73
2023/10/30 04:07:56;;;;;;;6.30;1.30;;;9.50;92.30;;;;;;5082728;28;20401;-73
2023/10/30 04:10:22;;;;;;;7.70;1.57;;;9.50;92.30;;;;;;5089667;28;20771;-73
2023/10/30 04:12:47;;;;;;;5.87;1.40;;;9.50;92.20;;;;;;5090087;28;20489;-73
2023/10/30 04:15:15;;;;;;;9.32;1.58;;;9.50;92.30;;;;;;5090000;28;20413;-73
2023/10/30 04:17:41;;;;;;;7.28;1.30;;;9.50;92.30;;;;;;5090337;28;20413;-73
2023/10/30 04:20:06;;;;;;;8.73;1.48;;;9.50;92.30;;;;;;5090586;28;20916;-73
2023/10/30 04:22:32;;;;;;;9.38;1.60;;;9.50;92.30;;;;;;5072660;28;20843;-73
2023/10/30 04:24:58;;;;;;;7.37;1.50;;;9.50;92.20;;;;;;5091006;28;20402;-72
2023/10/30 04:27:23;;;;;;;9.93;1.70;;;9.50;92.30;;;;;;5089439;28;20402;-73
2023/10/30 04:29:49;;;;;;;8.70;1.70;;;9.50;92.30;;;;;;5090118;28;20398;-72
2023/10/30 04:32:14;;;;;;;11.93;1.92;;;9.50;92.20;;;;;;5089930;28;20406;-73
2023/10/30 04:34:40;;;;;;;10.23;1.93;;;9.50;92.10;;;;;;5089463;28;20500;-73
2023/10/30 04:37:06;;;;;;;7.35;1.33;;;9.40;92.30;;;;;;5089828;28;20418;-73
2023/10/30 04:39:31;;;;;;;9.43;1.30;;;9.50;92.30;;;;;;5090461;28;20406;-73
2023/10/30 04:41:57;;;;;;;7.60;1.37;;;9.50;92.40;;;;;;5091016;28;20466;-73
2023/10/30 04:44:23;;;;;;;7.83;1.60;;;9.50;92.40;;;;;;5090453;28;20413;-72
2023/10/30 04:46:48;;;;;;;10.90;1.80;;;9.50;92.40;;;;;;5089493;28;20446;-73
2023/10/30 04:49:14;;;;;;;10.15;1.70;;;9.40;92.60;;;;;;5090147;28;20471;-73
2023/10/30 04:51:39;;;;;;;7.83;1.50;;;9.40;92.60;;;;;;5089624;28;20900;-73
2023/10/30 04:54:05;;;;;;;10.45;1.70;;;9.40;92.30;;;;;;5090591;28;21076;-73
2023/10/30 04:56:31;;;;;;;8.37;1.47;;;9.40;92.50;;;;;;5090773;28;20795;-73
2023/10/30 04:58:57;;;;;;;13.80;2.23;;;9.40;92.60;;;;;;5087836;28;20450;-72
2023/10/30 05:01:22;;;;;;;8.25;1.63;;;9.40;92.40;;;;;;5089827;28;20414;-72
2023/10/30 05:03:48;;;;;;;9.93;1.53;;;9.40;92.60;;;;;;5088527;28;20406;-71
2023/10/30 05:06:13;;;;;;;7.82;1.55;;;9.40;92.70;;;;;;5088846;28;20402;-72
2023/10/30 05:08:39;;;;;;;13.40;1.63;;;9.40;92.60;;;;;;5090173;28;21441;-72
2023/10/30 05:11:05;;;;;;;8.63;1.40;;;9.40;92.50;;;;;;5090415;28;20402;-72
2023/10/30 05:13:30;;;;;;;10.20;1.60;;;9.40;92.50;;;;;;5090024;28;20745;-72
2023/10/30 05:15:57;;;;;;;8.67;1.57;;;9.40;92.80;;;;;;5090080;28;20407;-72
2023/10/30 05:18:24;;;;;;;8.25;1.67;;;9.40;92.90;;;;;;5089645;28;20445;-71
2023/10/30 05:20:50;;;;;;;8.10;1.52;;;9.50;92.90;;;;;;5090152;28;20406;-72
2023/10/30 05:23:16;;;;;;;7.85;1.42;;;9.50;92.90;;;;;;5089934;28;20422;-72
2023/10/30 05:25:42;;;;;;;9.27;1.53;;;9.50;92.60;;;;;;5089603;28;20400;-71
2023/10/30 05:28:08;;;;;;;12.07;1.40;;;9.40;92.50;;;;;;5089407;28;20489;-72
2023/10/30 05:30:35;;;;;;;8.60;1.30;;;9.40;92.50;;;;;;5072187;28;20489;-72
2023/10/30 05:33:01;;;;;;;10.43;1.67;;;9.40;92.50;;;;;;5088412;28;20838;-72
2023/10/30 05:35:26;;;;;;;11.20;1.58;;;9.40;92.50;;;;;;5089652;28;20398;-71
2023/10/30 05:37:52;;;;;;;9.30;1.80;;;9.30;92.60;;;;;;5088236;28;20402;-71
2023/10/30 05:40:19;;;;;;;9.53;1.40;;;9.40;92.60;;;;;;5089851;28;20424;-71
2023/10/30 05:42:44;;;;;;;10.57;1.73;;;9.30;92.70;;;;;;5089509;28;20429;-71
2023/10/30 05:45:10;;;;;;;9.53;1.57;;;9.40;92.70;;;;;;5089640;28;20828;-72
2023/10/30 05:47:36;;;;;;;8.35;1.35;;;9.30;92.80;;;;;;5088803;28;20410;-72
2023/10/30 05:50:02;;;;;;;9.60;1.50;;;9.30;92.90;;;;;;5088430;28;20434;-72
2023/10/30 05:52:28;;;;;;;10.43;1.92;;;9.30;92.80;;;;;;5089196;28;20433;-72
2023/10/30 05:54:53;;;;;;;8.02;1.45;;;9.30;93.00;;;;;;5078287;28;20747;-71
2023/10/30 05:57:19;;;;;;;12.80;1.90;;;9.30;92.90;;;;;;5088806;28;20406;-71
2023/10/30 05:59:45;;;;;;;8.95;1.35;;;9.30;92.90;;;;;;5089188;28;20482;-72
2023/10/30 06:02:10;;;;;;;8.30;1.63;;;9.30;92.90;;;;;;5088491;28;20432;-71
2023/10/30 06:04:36;;;;;;;10.20;1.80;;;9.30;92.90;;;;;;5089119;28;20444;-71
2023/10/30 06:07:02;;;;;;;9.75;1.58;;;9.30;92.80;;;;;;5088850;28;20493;-72
2023/10/30 06:09:27;;;;;;;7.97;1.73;;;9.30;92.80;;;;;;5088778;28;20413;-72
2023/10/30 06:11:53;;;;;;;11.23;2.00;;;9.30;92.90;;;;;;5087206;28;20390;-72
2023/10/30 06:14:19;;;;;;;9.43;1.40;;;9.20;93.00;;;;;;5076251;28;20483;-72
2023/10/30 06:16:45;;;;;;;13.00;2.07;;;9.20;93.00;;;;;;5087198;28;20445;-71
2023/10/30 06:19:11;;;;;;;10.53;1.73;;;9.20;93.10;;;;;;5089104;28;20410;-72
2023/10/30 06:21:39;;;;;;;8.50;1.53;;;9.20;93.10;;;;;;5087798;28;20459;-71
2023/10/30 06:24:06;;;;;;;9.90;1.58;;;9.20;93.20;;;;;;5088522;28;20775;-71
2023/10/30 06:26:32;;;;;;;12.60;2.20;;;9.20;93.40;;;;;;5088643;28;20402;-72
2023/10/30 06:28:57;;;;;;;11.43;1.80;;;9.20;93.40;;;;;;5087538;28;20402;-72
2023/10/30 06:31:23;;;;;;;11.85;2.25;;;9.20;93.30;;;;;;5075197;28;20417;-72
2023/10/30 06:33:49;;;;;;;9.00;1.60;;;9.10;93.40;;;;;;5086997;28;20850;-72
2023/10/30 06:36:14;;;;;;;8.77;1.40;;;9.10;93.50;;;;;;5088155;28;20459;-71
2023/10/30 06:38:40;;;;;;;11.23;1.73;;;9.10;93.70;;;;;;5088649;28;20398;-72
2023/10/30 06:41:06;;;;;;;9.63;1.70;;;9.10;93.90;;;;;;5088463;28;20470;-71
2023/10/30 06:43:32;;;;;;;11.32;1.50;;;9.10;93.90;;;;;;5087016;28;21016;-72
2023/10/30 06:46:08;;;;;;;9.50;2.03;;;9.10;93.80;;;;;;5086741;28;20788;-72
2023/10/30 06:48:34;;;;;;;9.25;1.52;;;9.10;94.00;;;;;;5069988;28;20409;-72
2023/10/30 06:51:00;;;;;;;11.00;2.00;;;9.20;94.40;;;;;;5086599;28;20515;-71
2023/10/30 06:53:25;;;;;;;11.73;1.73;;;9.20;94.50;;;;;;5088153;28;20454;-70
2023/10/30 06:55:51;;;;;;;12.03;1.93;;;9.20;94.60;;;;;;5087796;28;20402;-71
2023/10/30 06:58:17;;;;;;;8.57;1.60;;;9.20;94.70;;;;;;5080127;28;20467;-71
2023/10/30 07:00:44;;;;;;;12.52;1.80;;;9.30;94.70;;;;;;5075886;28;20783;-72
2023/10/30 07:03:09;;;;;;;8.43;1.53;;;9.30;94.70;;;;;;5086344;28;20509;-72
2023/10/30 07:05:35;;;;;;;8.73;1.70;;;9.40;94.90;;;;;;5087635;28;20574;-72
2023/10/30 07:08:01;;;;;;;10.75;1.55;;;9.40;95.00;;;;;;5086564;28;20441;-72
2023/10/30 07:10:26;;;;;;;9.83;1.43;;;9.50;95.00;;;;;;5089618;28;20832;-72
2023/10/30 07:12:52;;;;;;;11.18;1.50;;;9.50;94.80;;;;;;5087538;28;20405;-72
2023/10/30 07:15:18;;;;;;;8.53;1.73;;;9.50;94.90;;;;;;5095824;28;20937;-72
2023/10/30 07:17:43;;;;;;;10.32;1.85;;;9.60;95.00;;;;;;5090643;28;21021;-72
2023/10/30 07:20:10;;;;;;;13.77;2.10;;;9.60;95.00;;;;;;5081665;28;20494;-72
2023/10/30 07:22:36;;;;;;;11.95;1.80;;;9.70;94.90;;;;;;5079635;28;20434;-72
2023/10/30 07:25:02;;;;;;;9.15;1.60;;;9.70;94.90;;;;;;5085816;28;20405;-73
2023/10/30 07:27:28;;;;;;;14.93;2.28;;;9.80;94.90;;;;;;5082098;28;20930;-72
2023/10/30 07:29:53;;;;;;;9.73;1.70;;;9.80;94.70;;;;;;5089392;28;20423;-73
2023/10/30 07:32:19;;;;;;;14.13;2.07;;;9.90;95.00;;;;;;5074990;28;20443;-73
2023/10/30 07:34:45;;;;;;;9.53;1.73;;;10.00;95.10;;;;;;5074655;28;21000;-73
2023/10/30 07:37:11;;;;;;;13.73;1.90;;;10.10;95.10;;;;;;5087564;28;20406;-73
2023/10/30 07:39:36;;;;;;;9.93;1.80;;;10.20;95.10;;;;;;5089587;28;20826;-73
2023/10/30 07:42:02;;;;;;;10.43;1.80;;;10.30;95.10;;;;;;5094808;28;20460;-73
2023/10/30 07:44:28;;;;;;;8.90;1.42;;;10.30;94.90;;;;;;5087480;28;20490;-73
2023/10/30 07:46:53;;;;;;;7.85;1.67;;;10.50;94.40;;;;;;5085949;28;20413;-73
2023/10/30 07:49:19;;;;;;;12.40;2.00;;;10.50;94.10;;;;;;5089386;28;20453;-73
2023/10/30 07:51:45;;;;;;;9.93;1.80;;;10.50;94.00;;;;;;5082501;28;20418;-73
2023/10/30 07:54:11;;;;;;;11.05;2.17;;;10.60;93.90;;;;;;5088520;28;20417;-72
2023/10/30 07:56:37;;;;;;;7.68;1.60;;;10.60;93.80;;;;;;5083920;28;20451;-73
2023/10/30 07:59:06;;;;;;;12.13;2.28;;;10.70;93.70;;;;;;5084234;28;20436;-73
2023/10/30 08:01:33;;;;;;;11.52;1.90;;;10.70;93.60;;;;;;5086631;28;20429;-73
2023/10/30 08:03:59;;;;;;;10.85;1.70;;;10.80;93.50;;;;;;5079743;28;20475;-73
2023/10/30 08:06:25;;;;;;;13.00;1.90;;;10.90;93.60;;;;;;5068570;28;20513;-73
2023/10/30 08:08:52;;;;;;;12.57;1.90;;;10.90;93.50;;;;;;5085520;28;20466;-73
2023/10/30 08:11:18;;;;;;;10.20;1.80;;;11.00;93.30;;;;;;5084364;28;20504;-73
2023/10/30 08:13:43;;;;;;;11.83;2.47;;;11.10;93.20;;;;;;5067901;28;20550;-73
2023/10/30 08:16:10;;;;;;;12.30;2.07;;;11.10;93.10;;;;;;5085937;28;20437;-73
2023/10/30 08:18:39;;;;;;;10.50;1.73;;;11.20;93.00;;;;;;5086949;28;20398;-73
2023/10/30 08:21:07;;;;;;;11.25;1.95;;;11.20;92.90;;;;;;5086243;28;21273;-73
2023/10/30 08:23:34;;;;;;;10.27;2.00;;;11.20;92.70;;;;;;5085744;28;20919;-73
2023/10/30 08:26:01;;;;;;;9.95;1.67;;;11.30;92.50;;;;;;5086326;28;20500;-73
2023/10/30 08:28:26;;;;;;;8.95;1.63;;;11.30;92.30;;;;;;5086804;28;20420;-73
2023/10/30 08:30:52;;;;;;;12.45;1.70;;;11.30;92.40;;;;;;5084235;28;20406;-73
2023/10/30 08:33:17;;;;;;;11.03;2.17;;;11.30;92.30;;;;;;5089723;28;20437;-73
2023/10/30 08:35:46;;;;;;;11.18;1.70;;;11.30;92.20;;;;;;5093886;28;21176;-73
2023/10/30 08:38:12;;;;;;;10.93;2.20;;;11.40;92.20;;;;;;5090042;28;20433;-73
2023/10/30 08:40:38;;;;;;;9.27;1.85;;;11.40;92.20;;;;;;5085666;28;20449;-73
2023/10/30 08:43:03;;;;;;;13.45;2.20;;;11.40;92.10;;;;;;5090767;28;20465;-73
2023/10/30 08:45:29;;;;;;;9.03;1.83;;;11.40;92.00;;;;;;5090809;28;20918;-73
2023/10/30 08:47:55;;;;;;;9.75;1.98;;;11.50;92.00;;;;;;5102141;28;20845;-73
2023/10/30 08:50:20;;;;;;;8.93;1.50;;;11.50;91.90;;;;;;5089734;28;20421;-73
2023/10/30 08:52:46;;;;;;;8.80;2.03;;;11.60;91.80;;;;;;5087338;28;20804;-73
2023/10/30 08:55:12;;;;;;;10.18;1.70;;;11.60;91.80;;;;;;5084456;28;20913;-73
2023/10/30 08:57:37;;;;;;;10.67;1.70;;;11.60;91.90;;;;;;5089374;28;20489;-73
2023/10/30 09:00:06;;;;;;;10.35;1.80;;;11.70;91.80;;;;;;5089635;28;20417;-73
2023/10/30 09:02:35;;;;;;;12.90;1.73;;;11.70;91.70;;;;;;5093088;28;20465;-73
2023/10/30 09:05:01;;;;;;;11.68;1.90;;;11.70;91.70;;;;;;5088794;28;20410;-73
2023/10/30 09:07:26;;;;;;;15.50;2.60;;;11.80;91.60;;;;;;5089369;28;20749;-73
2023/10/30 09:09:52;;;;;;;9.93;2.00;;;11.80;91.40;;;;;;5090165;28;20421;-73
2023/10/30 09:12:18;;;;;;;9.40;1.55;;;11.90;91.30;;;;;;5071846;28;20422;-73
2023/10/30 09:14:44;;;;;;;12.35;2.25;;;12.00;91.10;;;;;;5084203;28;20406;-72
2023/10/30 09:17:10;;;;;;;12.60;2.17;;;12.10;90.90;;;;;;5088980;28;20409;-73
2023/10/30 09:19:36;;;;;;;10.65;1.77;;;12.10;91.00;;;;;;5089226;28;20421;-73
2023/10/30 09:22:03;;;;;;;10.60;2.15;;;12.30;91.30;;;;;;5090354;28;20430;-73
2023/10/30 09:24:28;;;;;;;11.13;2.05;;;12.60;94.60;;;;;;5088608;28;20939;-74
2023/10/30 09:26:54;;;;;;;12.68;2.67;;;13.40;96.60;;;;;;5089189;28;20448;-74
2023/10/30 09:29:20;;;;;;;16.35;4.00;;;14.40;93.40;;;;;;5088041;28;20394;-74
2023/10/30 09:31:46;;;;;;;9.53;2.23;;;15.00;66.20;;;;;;5087409;28;20746;-74
2023/10/30 09:34:12;;;;;;;11.50;2.28;;;15.10;62.50;;;;;;5088253;28;20499;-74
2023/10/30 09:36:38;;;;;;;9.35;1.98;;;15.40;68.50;;;;;;5087426;28;20448;-74
2023/10/30 09:39:03;;;;;;;10.30;1.80;;;15.90;66.30;;;;;;5071592;28;20414;-74
2023/10/30 09:41:31;;;;;;;7.57;1.60;;;16.30;46.10;;;;;;5089204;28;20422;-74
2023/10/30 09:43:58;;;;;;;12.40;2.03;;;16.90;46.80;;;;;;5088776;28;20394;-73
2023/10/30 09:46:28;;;;;;;8.50;1.63;;;17.30;39.90;;;;;;5088518;28;20432;-74
2023/10/30 09:48:55;;;;;;;9.45;2.05;;;17.40;27.20;;;;;;5084725;28;20441;-74
2023/10/30 09:51:21;;;;;;;8.07;1.50;;;17.30;27.10;;;;;;5086968;28;20422;-74
2023/10/30 09:53:48;;;;;;;8.80;2.00;;;17.20;25.90;;;;;;5103938;27;20419;-74
2023/10/30 09:56:16;;;;;;;8.73;1.52;;;17.40;27.50;;;;;;5085049;28;20406;-74
2023/10/30 09:58:42;;;;;;;8.15;1.63;;;17.50;16.40;;;;;;5084899;28;20428;-74
2023/10/30 10:01:08;;;;;;;7.27;1.50;;;17.90;26.30;;;;;;5086854;28;20402;-74
2023/10/30 10:03:33;;;;;;;7.97;1.90;;;18.60;18.50;;;;;;5086453;28;20417;-74
2023/10/30 10:06:00;;;;;;;11.37;1.80;;;19.20;1.80;;;;;;5089550;28;20418;-74
2023/10/30 10:08:26;;;;;;;8.77;1.50;;;19.70;7.30;;;;;;5088588;28;20544;-74
2023/10/30 10:11:02;;;;;;;6.80;1.40;;;20.20;6.10;;;;;;5080015;28;20430;-74
2023/10/30 10:13:33;;;;;;;8.02;2.08;;;20.40;1.00;;;;;;5093425;28;20509;-74
2023/10/30 10:16:00;;;;;;;8.60;1.48;;;20.80;1.00;;;;;;5087543;28;20406;-74
2023/10/30 10:18:28;;;;;;;7.45;1.70;;;21.10;1.00;;;;;;5088549;28;20425;-74
2023/10/30 10:21:01;;;;;;;8.65;1.40;;;21.30;1.00;;;;;;5089064;28;20470;-74
2023/10/30 10:23:31;;;;;;;8.20;1.58;;;21.60;1.00;;;;;;5091789;28;20468;-74
2023/10/30 10:25:58;;;;;;;6.28;1.23;;;21.80;1.00;;;;;;5086933;28;20418;-74
2023/10/30 10:28:25;;;;;;;9.10;1.45;;;22.20;1.00;;;;;;5086668;28;20939;-74
2023/10/30 10:30:53;;;;;;;7.97;1.38;;;22.60;1.00;;;;;;5089757;28;20417;-74
2023/10/30 10:33:24;;;;;;;6.68;1.10;;;22.80;1.00;;;;;;5077317;28;20418;-73
2023/10/30 10:36:03;;;;;;;7.60;1.27;;;22.80;1.00;;;;;;5088452;28;20441;-72
2023/10/30 10:38:32;;;;;;;7.57;1.30;;;22.50;1.00;;;;;;5092498;28;20446;-73
2023/10/30 10:40:58;;;;;;;9.57;1.50;;;22.20;1.00;;;;;;5081657;28;20438;-73
2023/10/30 10:43:26;;;;;;;8.43;1.70;;;21.80;1.00;;;;;;5094802;28;20433;-73
2023/10/30 10:45:54;;;;;;;7.95;1.13;;;21.00;1.00;;;;;;5082052;28;20414;-73
2023/10/30 10:48:21;;;;;;;8.33;1.50;;;20.00;1.00;;;;;;5086023;28;20414;-73
2023/10/30 10:50:47;;;;;;;7.80;1.33;;;19.30;1.00;;;;;;5089729;28;21209;-73
2023/10/30 10:53:16;;;;;;;6.63;1.23;;;18.70;1.00;;;;;;5088646;28;20904;-73
2023/10/30 10:55:47;;;;;;;6.90;1.20;;;18.60;1.00;;;;;;5087460;28;20432;-73
2023/10/30 10:58:18;;;;;;;7.45;1.45;;;18.40;1.00;;;;;;5088242;28;20907;-73
2023/10/30 11:00:52;;;;;;;9.65;1.65;;;18.20;1.00;;;;;;5116272;27;20430;-73
2023/10/30 11:03:19;;;;;;;6.82;1.23;;;17.90;1.00;;;;;;5087666;28;20796;-73
2023/10/30 11:05:51;;;;;;;8.63;1.73;;;17.50;1.00;;;;;;5086502;28;20457;-73
2023/10/30 11:08:31;;;;;;;7.70;1.25;;;17.30;1.00;;;;;;5086809;28;20433;-73
2023/10/30 11:11:07;;;;;;;8.15;1.58;;;17.00;1.00;;;;;;5086420;28;20448;-73
2023/10/30 11:13:39;;;;;;;10.70;1.85;;;16.70;1.00;;;;;;5087348;28;21086;-74
2023/10/30 11:16:17;;;;;;;8.90;1.50;;;16.80;6.20;;;;;;5076961;28;20424;-74
2023/10/30 11:18:43;;;;;;;12.00;1.80;;;17.10;7.10;;;;;;5077711;28;20789;-74
2023/10/30 11:21:16;;;;;;;9.13;2.13;;;17.70;4.40;;;;;;5080011;28;20418;-74
2023/10/30 11:23:44;;;;;;;8.45;1.50;;;18.50;1.50;;;;;;5083792;28;20908;-73
2023/10/30 11:26:36;;;;;;;9.10;1.55;;;19.20;1.00;;;;;;5080665;28;20410;-73
2023/10/30 11:29:15;;;;;;;9.35;1.42;;;19.10;1.00;;;;;;5061385;28;20408;-73
2023/10/30 11:31:54;;;;;;;8.47;1.73;;;18.60;1.00;;;;;;5076326;28;20426;-73
2023/10/30 11:34:34;;;;;;;9.50;1.73;;;18.10;1.00;;;;;;5084266;28;21046;-73
2023/10/30 11:37:09;;;;;;;9.00;1.70;;;17.90;1.00;;;;;;5081797;28;20406;-73
2023/10/30 11:39:37;;;;;;;9.02;1.40;;;17.90;1.00;;;;;;5086197;28;20423;-73
2023/10/30 11:42:04;;;;;;;10.98;1.45;;;18.40;1.00;;;;;;5085074;28;21009;-73
2023/10/30 11:44:31;;;;;;;8.02;1.50;;;18.90;1.00;;;;;;5083282;28;20948;-73
2023/10/30 11:46:58;;;;;;;10.80;1.83;;;19.10;1.00;;;;;;5081646;28;20410;-72
2023/10/30 11:49:33;;;;;;;9.30;1.90;;;18.90;1.00;;;;;;5087600;28;20398;-72
2023/10/30 11:51:59;;;;;;;10.38;1.50;;;18.60;1.00;;;;;;5078887;28;20424;-73
2023/10/30 11:54:32;;;;;;;7.97;1.35;;;18.20;1.00;;;;;;5087291;28;20741;-73
2023/10/30 11:57:00;;;;;;;11.90;1.85;;;17.90;1.00;;;;;;5085941;28;20418;-73
2023/10/30 11:59:26;;;;;;;8.48;1.50;;;17.60;1.00;;;;;;5077618;28;20406;-73
2023/10/30 12:01:53;;;;;;;8.88;1.67;;;17.40;1.00;;;;;;5087536;28;20413;-73
2023/10/30 12:04:22;;;;;;;10.70;1.60;;;17.30;1.00;;;;;;5087354;28;20779;-73
2023/10/30 12:06:48;;;;;;;8.73;1.50;;;17.20;1.00;;;;;;5072741;28;20413;-74
2023/10/30 12:09:15;;;;;;;7.90;1.60;;;17.00;1.00;;;;;;5089712;28;20912;-73
2023/10/30 12:11:40;;;;;;;10.48;1.80;;;16.90;1.00;;;;;;5091063;28;20413;-73
2023/10/30 12:14:06;;;;;;;8.07;1.67;;;16.80;1.00;;;;;;5091601;28;20409;-73
2023/10/30 12:16:34;;;;;;;8.57;1.50;;;16.80;1.00;;;;;;5090907;28;20410;-73
2023/10/30 12:19:01;;;;;;;7.20;1.43;;;16.70;1.00;;;;;;5090013;28;20949;-73
2023/10/30 12:21:28;;;;;;;11.57;1.80;;;16.50;1.00;;;;;;5091089;28;20798;-72
2023/10/30 12:23:57;;;;;;;7.30;1.30;;;16.40;1.00;;;;;;5091463;28;20402;-73
2023/10/30 12:26:23;;;;;;;9.85;1.92;;;16.30;1.00;;;;;;5090387;28;20402;-73
2023/10/30 12:28:49;;;;;;;13.10;1.90;;;16.10;4.40;;;;;;5091368;28;20409;-73
2023/10/30 12:31:26;;;;;;;10.40;1.60;;;16.10;5.60;;;;;;5079360;28;20903;-73
2023/10/30 12:34:16;;;;;;;8.63;1.70;;;15.90;7.80;;;;;;5089423;28;20428;-73
2023/10/30 12:36:42;;;;;;;11.73;1.70;;;15.90;9.90;;;;;;5080004;28;20406;-73
2023/10/30 12:39:18;;;;;;;7.43;1.70;;;15.90;9.20;;;;;;5089294;28;20409;-73
2023/10/30 12:41:47;;;;;;;8.48;1.50;;;15.80;10.40;;;;;;5090675;28;20502;-73
2023/10/30 12:44:16;;;;;;;10.00;1.95;;;15.90;11.30;;;;;;5088768;28;20448;-73
2023/10/30 12:46:42;;;;;;;8.38;1.35;;;15.90;12.10;;;;;;5090875;28;20409;-74
2023/10/30 12:49:07;;;;;;;10.53;1.80;;;15.90;12.10;;;;;;5090498;28;20915;-74